Time;durP1;ratioP1;P1;durP2;ratioP2;P2;SDS_P1;SDS_P2;PMS_P1;PMS_P2;Temp;Humidity;BMP_temperature;BMP_pressure;BME280_temperature;BME280_humidity;BME280_pressure;Samples;Min_cycle;Max_cycle;Signal;HPM_P1;HPM_P2
2022/10/13 00:01:50;;;;;;;49.65;40.22;;;;;;;;;;5080606;28;20723;-76
2022/10/13 00:04:15;;;;;;;54.50;42.17;;;;;;;;;;5081237;28;20031;-76
2022/10/13 00:06:40;;;;;;;46.83;35.70;;;;;;;;;;5081074;28;20028;-75
2022/10/13 00:09:06;;;;;;;42.20;34.83;;;;;;;;;;5080892;28;20035;-77
2022/10/13 00:11:31;;;;;;;36.67;29.70;;;;;;;;;;5080939;28;20063;-76
2022/10/13 00:13:58;;;;;;;38.20;28.63;;;;;;;;;;5068013;28;20032;-76
2022/10/13 00:16:23;;;;;;;38.22;31.35;;;;;;;;;;5080743;28;20020;-76
2022/10/13 00:18:49;;;;;;;42.83;33.33;;;;;;;;;;5079612;28;20898;-76
2022/10/13 00:21:16;;;;;;;41.85;33.95;;;;;;;;;;5080578;28;20436;-77
2022/10/13 00:23:41;;;;;;;46.58;34.60;;;;;;;;;;5080008;28;20020;-76
2022/10/13 00:26:08;;;;;;;48.90;37.35;;;;;;;;;;5080464;28;20073;-76
2022/10/13 00:28:34;;;;;;;48.20;37.75;;;;;;;;;;5080671;28;20120;-76
2022/10/13 00:30:59;;;;;;;43.42;33.97;;;;;;;;;;5079536;28;20032;-77
2022/10/13 00:33:24;;;;;;;46.08;34.58;;;;;;;;;;5081114;28;20337;-77
2022/10/13 00:35:50;;;;;;;46.03;34.08;;;;;;;;;;5079498;28;20092;-77
2022/10/13 00:38:16;;;;;;;38.25;30.63;;;;;;;;;;5080892;28;20066;-76
2022/10/13 00:40:53;;;;;;;39.53;30.42;;;;;;;;;;5081190;28;20051;-76
2022/10/13 00:43:24;;;;;;;38.80;29.35;;;;;;;;;;5079936;28;20028;-76
2022/10/13 00:45:50;;;;;;;39.75;29.80;;;;;;;;;;5079047;28;20027;-77
2022/10/13 00:48:24;;;;;;;38.35;29.08;;;;;;;;;;5080628;28;20028;-76
2022/10/13 00:50:49;;;;;;;33.42;26.02;;;;;;;;;;5080671;28;20028;-78
2022/10/13 00:53:16;;;;;;;31.30;24.80;;;;;;;;;;5078918;28;20020;-75
2022/10/13 00:55:42;;;;;;;32.00;25.45;;;;;;;;;;5079317;28;20028;-77
2022/10/13 00:58:08;;;;;;;28.40;22.20;;;;;;;;;;5080570;28;20077;-77
2022/10/13 01:00:34;;;;;;;28.77;22.48;;;;;;;;;;5080774;28;20031;-77
2022/10/13 01:03:00;;;;;;;32.15;24.33;;;;;;;;;;5077420;28;20070;-76
2022/10/13 01:05:25;;;;;;;36.42;28.27;;;;;;;;;;5072201;28;20020;-76
2022/10/13 01:07:51;;;;;;;42.47;30.70;;;;;;;;;;5080719;28;20355;-76
2022/10/13 01:10:26;;;;;;;41.88;32.33;;;;;;;;;;5080796;28;20423;-75
2022/10/13 01:13:00;;;;;;;36.53;27.98;;;;;;;;;;5070491;28;20056;-76
2022/10/13 01:15:25;;;;;;;32.72;26.05;;;;;;;;;;5080221;28;20044;-76
2022/10/13 01:17:58;;;;;;;36.35;29.35;;;;;;;;;;5080649;28;20032;-76
2022/10/13 01:20:42;;;;;;;32.50;26.83;;;;;;;;;;5080325;28;20401;-76
2022/10/13 01:23:17;;;;;;;37.45;27.55;;;;;;;;;;5080522;28;20035;-74
2022/10/13 01:25:54;;;;;;;32.20;26.58;;;;;;;;;;5079930;28;20032;-75
2022/10/13 01:28:26;;;;;;;31.35;26.05;;;;;;;;;;5080127;28;20032;-76
2022/10/13 01:30:57;;;;;;;26.77;22.98;;;;;;;;;;5080144;28;20028;-75
2022/10/13 01:33:28;;;;;;;28.30;22.42;;;;;;;;;;5078478;28;20032;-75
2022/10/13 01:36:15;;;;;;;30.17;21.55;;;;;;;;;;5079931;28;20027;-75
2022/10/13 01:38:40;;;;;;;26.50;20.25;;;;;;;;;;5079732;28;20043;-75
2022/10/13 01:41:21;;;;;;;24.70;20.48;;;;;;;;;;5080372;28;20430;-76
2022/10/13 01:43:59;;;;;;;22.65;19.67;;;;;;;;;;5081080;28;20036;-76
2022/10/13 01:46:27;;;;;;;21.92;19.60;;;;;;;;;;5084440;28;20044;-76
2022/10/13 01:48:55;;;;;;;27.05;20.63;;;;;;;;;;5083713;28;20482;-76
2022/10/13 01:51:21;;;;;;;22.15;19.08;;;;;;;;;;5081529;28;20419;-77
2022/10/13 01:53:47;;;;;;;22.63;20.30;;;;;;;;;;5083532;28;20162;-76
2022/10/13 01:56:12;;;;;;;25.33;21.67;;;;;;;;;;5083740;28;20458;-75
2022/10/13 01:58:38;;;;;;;28.30;24.85;;;;;;;;;;5083422;28;20075;-76
2022/10/13 02:01:03;;;;;;;29.90;23.67;;;;;;;;;;5083988;28;20374;-75
2022/10/13 02:04:01;;;;;;;24.25;21.63;;;;;;;;;;5083421;28;20020;-76
2022/10/13 02:06:31;;;;;;;24.90;22.15;;;;;;;;;;5046833;28;20114;-76
2022/10/13 02:09:00;;;;;;;22.73;19.85;;;;;;;;;;5083499;28;20055;-76
2022/10/13 02:11:26;;;;;;;24.50;21.90;;;;;;;;;;5072553;28;20024;-75
2022/10/13 02:13:56;;;;;;;27.73;24.02;;;;;;;;;;5083406;28;20097;-76
2022/10/13 02:16:22;;;;;;;25.20;22.52;;;;;;;;;;5082915;28;20028;-77
2022/10/13 02:18:48;;;;;;;26.42;22.30;;;;;;;;;;5081467;28;20537;-75
2022/10/13 02:21:14;;;;;;;27.00;23.25;;;;;;;;;;5075642;28;20038;-74
2022/10/13 02:23:41;;;;;;;35.97;28.67;;;;;;;;;;5083572;28;20107;-75
2022/10/13 02:26:07;;;;;;;55.42;38.33;;;;;;;;;;5070318;28;20024;-75
2022/10/13 02:28:35;;;;;;;76.15;49.78;;;;;;;;;;5069014;28;20036;-76
2022/10/13 02:31:00;;;;;;;70.43;47.20;;;;;;;;;;5067317;28;20046;-77
2022/10/13 02:33:26;;;;;;;66.43;43.90;;;;;;;;;;5065051;28;20493;-75
2022/10/13 02:35:51;;;;;;;65.13;43.70;;;;;;;;;;5064896;28;20024;-76
2022/10/13 02:38:17;;;;;;;58.50;40.42;;;;;;;;;;5065157;28;20020;-77
2022/10/13 02:40:42;;;;;;;63.00;40.15;;;;;;;;;;5067399;28;20036;-77
2022/10/13 02:43:07;;;;;;;48.55;36.38;;;;;;;;;;5069436;28;20024;-76
2022/10/13 02:45:33;;;;;;;35.58;27.92;;;;;;;;;;5068632;28;20032;-77
2022/10/13 02:47:58;;;;;;;32.17;26.42;;;;;;;;;;5069830;28;20032;-76
2022/10/13 02:50:24;;;;;;;29.88;25.42;;;;;;;;;;5070524;28;20099;-76
2022/10/13 02:52:49;;;;;;;26.67;23.85;;;;;;;;;;5070428;28;20020;-76
2022/10/13 02:55:14;;;;;;;32.58;26.00;;;;;;;;;;5067067;28;20024;-77
2022/10/13 02:57:40;;;;;;;42.13;32.17;;;;;;;;;;5066639;28;20110;-76
2022/10/13 03:00:06;;;;;;;48.42;33.97;;;;;;;;;;5081643;28;20324;-76
2022/10/13 03:02:31;;;;;;;65.40;42.92;;;;;;;;;;5082075;28;20039;-77
2022/10/13 03:04:56;;;;;;;58.33;38.95;;;;;;;;;;5081613;28;20103;-75
2022/10/13 03:07:22;;;;;;;59.13;39.10;;;;;;;;;;5082356;28;20031;-77
2022/10/13 03:09:47;;;;;;;58.75;37.10;;;;;;;;;;5083117;28;20023;-76
2022/10/13 03:12:12;;;;;;;57.53;37.72;;;;;;;;;;5068631;28;20051;-76
2022/10/13 03:14:38;;;;;;;59.28;38.00;;;;;;;;;;5070058;28;20024;-76
2022/10/13 03:17:04;;;;;;;55.72;37.20;;;;;;;;;;5081506;28;20085;-76
2022/10/13 03:19:29;;;;;;;73.78;48.97;;;;;;;;;;5082876;28;20340;-76
2022/10/13 03:21:55;;;;;;;119.00;78.40;;;;;;;;;;5081169;28;20111;-76
2022/10/13 03:24:20;;;;;;;169.85;125.35;;;;;;;;;;5082810;28;21072;-77
2022/10/13 03:26:45;;;;;;;70.30;58.50;;;;;;;;;;5080738;28;20046;-76
2022/10/13 03:29:15;;;;;;;46.45;36.65;;;;;;;;;;5081640;28;20107;-76
2022/10/13 03:31:40;;;;;;;49.13;33.60;;;;;;;;;;5081521;28;20028;-75
2022/10/13 03:34:07;;;;;;;45.45;30.30;;;;;;;;;;5079154;28;20028;-75
2022/10/13 03:36:32;;;;;;;52.22;33.88;;;;;;;;;;5072859;28;20107;-77
2022/10/13 03:38:57;;;;;;;53.30;33.80;;;;;;;;;;5079333;28;20406;-76
2022/10/13 03:41:23;;;;;;;71.72;40.83;;;;;;;;;;5082464;28;20105;-77
2022/10/13 03:43:48;;;;;;;85.95;46.70;;;;;;;;;;5082606;28;20020;-76
2022/10/13 03:46:16;;;;;;;85.97;45.80;;;;;;;;;;5075039;28;20569;-75
2022/10/13 03:48:41;;;;;;;69.13;40.78;;;;;;;;;;5077454;28;20050;-76
2022/10/13 03:51:11;;;;;;;61.75;39.33;;;;;;;;;;5081432;28;20427;-75
2022/10/13 03:53:37;;;;;;;66.47;38.40;;;;;;;;;;5080555;28;20058;-75
2022/10/13 03:56:03;;;;;;;87.35;53.10;;;;;;;;;;5080952;28;20660;-76
2022/10/13 03:58:28;;;;;;;105.07;56.78;;;;;;;;;;5075991;28;20085;-75
2022/10/13 04:00:54;;;;;;;78.32;49.60;;;;;;;;;;5073821;28;20031;-75
2022/10/13 04:03:20;;;;;;;70.55;45.72;;;;;;;;;;5080536;28;20074;-75
2022/10/13 04:05:45;;;;;;;87.63;53.45;;;;;;;;;;5066873;28;20453;-76
2022/10/13 04:08:11;;;;;;;84.90;54.88;;;;;;;;;;5067910;28;20060;-76
2022/10/13 04:10:37;;;;;;;85.85;56.85;;;;;;;;;;5067832;28;20024;-75
2022/10/13 04:13:02;;;;;;;79.82;59.72;;;;;;;;;;5068111;28;20466;-76
2022/10/13 04:15:27;;;;;;;90.68;66.85;;;;;;;;;;5067152;28;20038;-74
2022/10/13 04:17:53;;;;;;;91.95;72.18;;;;;;;;;;5068000;28;20135;-75
2022/10/13 04:20:18;;;;;;;73.35;55.97;;;;;;;;;;5067549;28;20032;-76
2022/10/13 04:22:44;;;;;;;50.53;38.47;;;;;;;;;;5075371;28;20424;-75
2022/10/13 04:25:09;;;;;;;39.45;29.30;;;;;;;;;;5081976;28;20046;-75
2022/10/13 04:27:38;;;;;;;44.15;34.20;;;;;;;;;;5081318;28;20095;-77
2022/10/13 04:30:06;;;;;;;41.88;33.22;;;;;;;;;;5080803;28;20118;-76
2022/10/13 04:32:31;;;;;;;46.40;35.25;;;;;;;;;;5080693;28;20020;-76
2022/10/13 04:34:57;;;;;;;45.92;34.75;;;;;;;;;;5069140;28;20030;-76
2022/10/13 04:37:23;;;;;;;43.17;35.17;;;;;;;;;;5071602;28;20493;-76
2022/10/13 04:39:48;;;;;;;50.15;38.38;;;;;;;;;;5078168;28;20046;-76
2022/10/13 04:42:13;;;;;;;50.58;37.65;;;;;;;;;;5081119;28;20036;-76
2022/10/13 04:44:39;;;;;;;44.42;33.78;;;;;;;;;;5078131;28;20035;-79
2022/10/13 04:47:04;;;;;;;50.17;36.60;;;;;;;;;;5066943;28;20063;-79
2022/10/13 04:49:29;;;;;;;51.67;37.22;;;;;;;;;;5077084;28;20934;-77
2022/10/13 04:51:55;;;;;;;52.13;36.00;;;;;;;;;;5065402;28;20020;-77
2022/10/13 04:54:21;;;;;;;62.10;38.53;;;;;;;;;;5074951;28;20494;-76
2022/10/13 04:56:46;;;;;;;74.10;40.60;;;;;;;;;;5074622;28;20028;-76
2022/10/13 04:59:11;;;;;;;52.45;36.22;;;;;;;;;;5081085;28;20032;-75
2022/10/13 05:01:37;;;;;;;53.65;36.40;;;;;;;;;;5080686;28;20032;-76
2022/10/13 05:04:03;;;;;;;57.38;35.75;;;;;;;;;;5071756;28;20497;-77
2022/10/13 05:06:30;;;;;;;56.28;37.38;;;;;;;;;;5078168;28;20024;-74
2022/10/13 05:08:55;;;;;;;61.10;36.50;;;;;;;;;;5079087;28;20435;-76
2022/10/13 05:11:21;;;;;;;56.90;37.67;;;;;;;;;;5080105;28;20111;-77
2022/10/13 05:13:46;;;;;;;61.08;38.03;;;;;;;;;;5080292;28;20035;-77
2022/10/13 05:16:13;;;;;;;64.57;39.80;;;;;;;;;;5080430;28;20103;-76
2022/10/13 05:18:39;;;;;;;72.25;45.65;;;;;;;;;;5082242;28;20095;-77
2022/10/13 05:21:08;;;;;;;76.25;50.53;;;;;;;;;;5084839;28;20034;-76
2022/10/13 05:23:34;;;;;;;75.40;48.47;;;;;;;;;;5084142;28;20024;-77
2022/10/13 05:26:01;;;;;;;69.10;50.80;;;;;;;;;;5084990;28;20024;-77
2022/10/13 05:28:26;;;;;;;80.38;56.40;;;;;;;;;;5081423;28;20031;-78
2022/10/13 05:30:52;;;;;;;72.40;48.47;;;;;;;;;;5074007;28;20027;-77
2022/10/13 05:33:17;;;;;;;73.20;51.30;;;;;;;;;;5084158;28;20023;-75
2022/10/13 05:35:42;;;;;;;75.15;54.20;;;;;;;;;;5082141;28;20089;-75
2022/10/13 05:38:08;;;;;;;111.38;74.40;;;;;;;;;;5084066;28;20478;-76
2022/10/13 05:40:33;;;;;;;81.03;55.47;;;;;;;;;;5076439;28;20043;-76
2022/10/13 05:42:58;;;;;;;71.30;49.20;;;;;;;;;;5071174;28;20093;-76
2022/10/13 05:45:26;;;;;;;72.82;48.90;;;;;;;;;;5071844;28;20107;-76
2022/10/13 05:47:52;;;;;;;68.32;47.97;;;;;;;;;;5071157;28;20082;-76
2022/10/13 05:50:18;;;;;;;69.85;52.63;;;;;;;;;;5070700;28;20032;-76
2022/10/13 05:52:43;;;;;;;64.53;48.53;;;;;;;;;;5068916;28;20632;-75
2022/10/13 05:55:09;;;;;;;59.75;44.10;;;;;;;;;;5071373;28;20044;-76
2022/10/13 05:57:37;;;;;;;65.28;45.70;;;;;;;;;;5068722;28;20028;-77
2022/10/13 06:00:09;;;;;;;64.90;46.38;;;;;;;;;;5069649;28;20040;-77
2022/10/13 06:02:47;;;;;;;60.58;45.35;;;;;;;;;;5071167;28;20020;-77
2022/10/13 06:05:15;;;;;;;55.17;40.67;;;;;;;;;;5078613;28;20024;-75
2022/10/13 06:07:41;;;;;;;54.33;38.67;;;;;;;;;;5082873;28;20101;-76
2022/10/13 06:10:07;;;;;;;53.45;41.55;;;;;;;;;;5083635;28;20034;-76
2022/10/13 06:12:32;;;;;;;77.65;67.35;;;;;;;;;;5087432;28;20385;-76
2022/10/13 06:14:57;;;;;;;378.13;285.77;;;;;;;;;;5083177;28;20052;-78
2022/10/13 06:17:23;;;;;;;195.43;144.90;;;;;;;;;;5085667;28;20050;-79
2022/10/13 06:19:48;;;;;;;84.85;62.97;;;;;;;;;;5080190;28;20522;-80
2022/10/13 06:22:14;;;;;;;97.30;78.65;;;;;;;;;;5084152;28;20032;-80
2022/10/13 06:24:39;;;;;;;63.63;50.13;;;;;;;;;;5082016;28;20037;-78
2022/10/13 06:27:04;;;;;;;65.38;48.25;;;;;;;;;;5071289;28;20028;-80
2022/10/13 06:29:31;;;;;;;60.45;46.38;;;;;;;;;;5084215;28;20035;-78
2022/10/13 06:31:57;;;;;;;69.97;48.30;;;;;;;;;;5083412;28;20110;-77
2022/10/13 06:34:22;;;;;;;72.32;48.10;;;;;;;;;;5084166;28;20409;-80
2022/10/13 06:36:47;;;;;;;76.63;52.75;;;;;;;;;;5083504;28;20039;-77
2022/10/13 06:39:13;;;;;;;73.40;48.75;;;;;;;;;;5083920;28;20036;-79
2022/10/13 06:41:38;;;;;;;82.20;48.30;;;;;;;;;;5084737;28;20339;-76
2022/10/13 06:44:04;;;;;;;70.97;46.95;;;;;;;;;;5081555;28;20031;-79
2022/10/13 06:46:34;;;;;;;70.18;44.05;;;;;;;;;;5082138;28;20066;-79
2022/10/13 06:49:00;;;;;;;68.20;43.08;;;;;;;;;;5064849;28;20406;-77
2022/10/13 06:51:26;;;;;;;63.08;43.53;;;;;;;;;;5081360;28;20024;-78
2022/10/13 06:53:51;;;;;;;67.28;40.40;;;;;;;;;;5080029;28;20490;-78
2022/10/13 06:56:16;;;;;;;68.72;44.20;;;;;;;;;;5080235;28;20024;-77
2022/10/13 06:58:42;;;;;;;66.80;42.85;;;;;;;;;;5079115;28;20034;-77
2022/10/13 07:01:10;;;;;;;80.47;47.50;;;;;;;;;;5079788;28;20032;-77
2022/10/13 07:03:36;;;;;;;68.18;42.13;;;;;;;;;;5079952;28;20043;-78
2022/10/13 07:06:02;;;;;;;79.90;50.00;;;;;;;;;;5079494;28;20073;-77
2022/10/13 07:08:27;;;;;;;70.78;47.05;;;;;;;;;;5080751;28;20032;-77
2022/10/13 07:10:53;;;;;;;74.78;46.08;;;;;;;;;;5082271;28;20335;-76
2022/10/13 07:13:20;;;;;;;86.22;50.58;;;;;;;;;;5075842;28;20103;-78
2022/10/13 07:15:45;;;;;;;79.00;48.10;;;;;;;;;;5074457;28;20020;-78
2022/10/13 07:18:10;;;;;;;84.07;53.72;;;;;;;;;;5079543;28;20089;-80
2022/10/13 07:20:36;;;;;;;86.15;56.10;;;;;;;;;;5071331;28;20054;-78
2022/10/13 07:23:01;;;;;;;87.25;50.95;;;;;;;;;;5080801;28;20026;-76
2022/10/13 07:25:27;;;;;;;71.00;44.75;;;;;;;;;;5069140;28;20028;-73
2022/10/13 07:27:52;;;;;;;74.95;46.38;;;;;;;;;;5069296;28;20051;-74
2022/10/13 07:30:17;;;;;;;67.32;38.45;;;;;;;;;;5069182;28;20111;-73
2022/10/13 07:32:43;;;;;;;57.00;35.08;;;;;;;;;;5068573;28;20028;-74
2022/10/13 07:35:09;;;;;;;74.45;44.10;;;;;;;;;;5079966;28;20416;-74
2022/10/13 07:37:35;;;;;;;70.88;41.83;;;;;;;;;;5078415;28;20035;-74
2022/10/13 07:40:01;;;;;;;75.18;44.50;;;;;;;;;;5079369;28;20036;-73
2022/10/13 07:42:26;;;;;;;82.60;45.25;;;;;;;;;;5077763;28;20116;-73
2022/10/13 07:44:51;;;;;;;80.78;47.13;;;;;;;;;;5078802;28;20019;-74
2022/10/13 07:47:17;;;;;;;68.68;38.65;;;;;;;;;;5080027;28;20348;-76
2022/10/13 07:49:42;;;;;;;68.32;38.30;;;;;;;;;;5076937;28;20032;-74
2022/10/13 07:52:08;;;;;;;61.83;38.80;;;;;;;;;;5066374;28;20028;-74
2022/10/13 07:54:33;;;;;;;69.80;42.67;;;;;;;;;;5067365;28;20634;-76
2022/10/13 07:56:58;;;;;;;63.17;38.50;;;;;;;;;;5068299;28;20024;-75
2022/10/13 07:59:24;;;;;;;65.97;39.22;;;;;;;;;;5078103;28;20035;-75
2022/10/13 08:01:50;;;;;;;61.63;38.03;;;;;;;;;;5076798;28;20028;-75
2022/10/13 08:04:15;;;;;;;76.60;45.22;;;;;;;;;;5073478;28;20086;-74
2022/10/13 08:06:41;;;;;;;71.03;41.28;;;;;;;;;;5077729;28;20046;-80
2022/10/13 08:09:06;;;;;;;75.35;40.75;;;;;;;;;;5077027;28;20103;-78
2022/10/13 08:11:32;;;;;;;85.70;41.85;;;;;;;;;;5077812;28;20081;-79
2022/10/13 08:14:00;;;;;;;70.22;40.97;;;;;;;;;;5077400;28;20038;-80
2022/10/13 08:16:26;;;;;;;71.72;37.60;;;;;;;;;;5080367;28;20020;-80
2022/10/13 08:18:52;;;;;;;70.05;39.35;;;;;;;;;;5078469;28;20160;-77
2022/10/13 08:21:18;;;;;;;76.68;43.80;;;;;;;;;;5077683;28;20366;-78
2022/10/13 08:23:44;;;;;;;85.70;46.15;;;;;;;;;;5080452;28;20642;-77
2022/10/13 08:26:17;;;;;;;68.53;37.85;;;;;;;;;;5080670;28;20496;-78
2022/10/13 08:28:42;;;;;;;71.20;41.65;;;;;;;;;;5080499;28;20024;-78
2022/10/13 08:31:08;;;;;;;71.90;45.80;;;;;;;;;;5080874;28;20031;-78
2022/10/13 08:33:33;;;;;;;78.00;51.97;;;;;;;;;;5079097;28;20546;-79
2022/10/13 08:35:58;;;;;;;78.93;53.35;;;;;;;;;;5080379;28;20046;-79
2022/10/13 08:38:24;;;;;;;317.85;236.13;;;;;;;;;;5077820;28;20653;-80
2022/10/13 08:40:50;;;;;;;235.35;165.85;;;;;;;;;;5080770;28;21040;-79
2022/10/13 08:43:17;;;;;;;115.50;77.35;;;;;;;;;;5078676;28;20059;-77
2022/10/13 08:45:43;;;;;;;168.00;101.45;;;;;;;;;;5079015;28;20020;-77
2022/10/13 08:48:14;;;;;;;353.02;188.40;;;;;;;;;;5078576;28;20031;-78
2022/10/13 08:50:41;;;;;;;189.40;102.28;;;;;;;;;;5078592;28;20028;-77
2022/10/13 08:53:13;;;;;;;260.50;147.05;;;;;;;;;;5075644;28;20028;-77
2022/10/13 08:55:40;;;;;;;182.32;99.78;;;;;;;;;;5080119;28;20089;-74
2022/10/13 08:58:15;;;;;;;134.60;76.60;;;;;;;;;;5079265;28;20089;-78
2022/10/13 09:00:41;;;;;;;108.22;67.68;;;;;;;;;;5077187;28;20032;-74
2022/10/13 09:03:16;;;;;;;139.93;84.97;;;;;;;;;;5077496;28;20026;-75
2022/10/13 09:05:45;;;;;;;131.38;80.47;;;;;;;;;;5076855;28;20068;-75
2022/10/13 09:08:15;;;;;;;86.53;59.80;;;;;;;;;;5080747;28;20039;-78
2022/10/13 09:10:50;;;;;;;126.82;80.68;;;;;;;;;;5078213;28;20048;-77
2022/10/13 09:13:15;;;;;;;72.75;48.95;;;;;;;;;;5079067;28;20028;-78
2022/10/13 09:15:45;;;;;;;63.17;42.47;;;;;;;;;;5079048;28;20032;-75
2022/10/13 09:18:12;;;;;;;61.67;46.03;;;;;;;;;;5077695;28;20039;-77
2022/10/13 09:20:37;;;;;;;80.47;56.50;;;;;;;;;;5080147;28;20118;-78
2022/10/13 09:23:04;;;;;;;69.28;46.55;;;;;;;;;;5076664;28;20115;-78
2022/10/13 09:25:38;;;;;;;107.78;77.80;;;;;;;;;;5078893;28;20160;-78
2022/10/13 09:28:08;;;;;;;86.53;61.47;;;;;;;;;;5078853;28;20335;-77
2022/10/13 09:30:41;;;;;;;59.65;44.40;;;;;;;;;;5079441;28;20024;-79
2022/10/13 09:33:06;;;;;;;54.15;42.25;;;;;;;;;;5078976;28;20362;-79
2022/10/13 09:35:33;;;;;;;54.03;42.63;;;;;;;;;;5077763;28;20726;-77
2022/10/13 09:38:06;;;;;;;72.38;52.90;;;;;;;;;;5079148;28;20027;-77
2022/10/13 09:40:31;;;;;;;244.65;199.60;;;;;;;;;;5076615;28;20127;-78
2022/10/13 09:42:57;;;;;;;116.88;99.55;;;;;;;;;;5078783;28;20488;-80
2022/10/13 09:45:24;;;;;;;58.05;45.72;;;;;;;;;;5079149;28;20792;-79
2022/10/13 09:47:51;;;;;;;84.40;60.95;;;;;;;;;;5077307;28;20086;-79
2022/10/13 09:50:18;;;;;;;55.65;42.90;;;;;;;;;;5079336;28;20031;-76
2022/10/13 09:52:44;;;;;;;61.88;47.67;;;;;;;;;;5078473;28;20123;-78
2022/10/13 09:55:45;;;;;;;49.38;38.55;;;;;;;;;;5079851;28;20032;-77
2022/10/13 09:58:28;;;;;;;48.05;37.15;;;;;;;;;;5034177;28;20049;-77
2022/10/13 10:00:54;;;;;;;41.95;34.03;;;;;;;;;;5037811;28;20040;-76
2022/10/13 10:03:20;;;;;;;50.80;41.10;;;;;;;;;;5036643;28;20060;-77
2022/10/13 10:05:49;;;;;;;97.30;65.35;;;;;;;;;;5022235;28;20372;-75
2022/10/13 10:08:14;;;;;;;;;;;;;;;;;;5041071;28;20052;-75
2022/10/13 10:10:41;;;;;;;79.83;59.63;;;;;;;;;;5040853;28;20318;-76
2022/10/13 10:13:11;;;;;;;89.15;67.13;;;;;;;;;;5039671;28;20445;-78
2022/10/13 10:15:36;;;;;;;62.83;50.03;;;;;;;;;;5038343;28;20498;-77
2022/10/13 10:18:10;;;;;;;58.45;45.67;;;;;;;;;;5039695;28;20021;-76
2022/10/13 10:20:38;;;;;;;54.42;44.38;;;;;;;;;;5038656;28;20136;-78
2022/10/13 10:23:04;;;;;;;55.17;43.83;;;;;;;;;;5039284;28;20033;-77
2022/10/13 10:25:29;;;;;;;53.15;43.35;;;;;;;;;;5037693;28;20056;-78
2022/10/13 10:28:13;;;;;;;46.78;39.38;;;;;;;;;;5037236;28;20128;-76
2022/10/13 10:31:00;;;;;;;57.08;42.70;;;;;;;;;;5036344;28;20395;-81
2022/10/13 10:33:36;;;;;;;51.90;40.08;;;;;;;;;;5055773;28;20126;-77
2022/10/13 10:36:06;;;;;;;45.83;38.20;;;;;;;;;;5082368;28;20396;-77
2022/10/13 10:38:44;;;;;;;53.92;46.35;;;;;;;;;;5079569;28;20032;-79
2022/10/13 10:41:12;;;;;;;46.35;38.70;;;;;;;;;;5079394;28;20032;-77
2022/10/13 10:44:04;;;;;;;65.25;52.13;;;;;;;;;;5080944;28;20086;-76
2022/10/13 10:46:34;;;;;;;51.95;41.72;;;;;;;;;;5037871;28;20060;-78
2022/10/13 10:49:09;;;;;;;45.17;39.85;;;;;;;;;;5038258;28;20075;-81
2022/10/13 10:51:36;;;;;;;47.47;38.45;;;;;;;;;;5038430;28;20090;-76
2022/10/13 10:54:22;;;;;;;52.55;44.83;;;;;;;;;;5040248;28;20032;-76
2022/10/13 10:56:53;;;;;;;48.42;37.58;;;;;;;;;;5038679;28;20072;-76
2022/10/13 10:59:38;;;;;;;57.13;43.22;;;;;;;;;;5038695;28;20033;-75
2022/10/13 11:02:07;;;;;;;42.60;34.55;;;;;;;;;;5037201;28;20444;-78
2022/10/13 11:04:40;;;;;;;40.88;35.63;;;;;;;;;;5039695;28;20523;-78
2022/10/13 11:07:11;;;;;;;41.50;34.05;;;;;;;;;;5041318;28;20095;-76
2022/10/13 11:09:39;;;;;;;37.58;30.60;;;;;;;;;;5038083;28;20496;-77
2022/10/13 11:12:20;;;;;;;40.33;30.77;;;;;;;;;;5039199;28;20025;-76
2022/10/13 11:14:46;;;;;;;54.95;40.28;;;;;;;;;;5038489;28;20037;-75
2022/10/13 11:17:14;;;;;;;39.85;33.67;;;;;;;;;;5034162;28;20035;-77
2022/10/13 11:19:40;;;;;;;74.45;53.25;;;;;;;;;;5021742;28;20411;-76
2022/10/13 11:22:05;;;;;;;47.85;38.60;;;;;;;;;;5021980;28;20071;-78
2022/10/13 11:24:33;;;;;;;48.67;37.88;;;;;;;;;;5079125;28;20081;-78
2022/10/13 11:27:17;;;;;;;37.53;28.50;;;;;;;;;;5081497;28;20016;-76
2022/10/13 11:29:43;;;;;;;31.27;23.65;;;;;;;;;;5080550;28;20280;-78
2022/10/13 11:32:23;;;;;;;31.38;24.75;;;;;;;;;;5080176;28;20379;-75
2022/10/13 11:35:04;;;;;;;29.48;24.23;;;;;;;;;;5079115;28;20028;-77
2022/10/13 11:37:48;;;;;;;23.75;20.63;;;;;;;;;;5080679;28;20428;-76
2022/10/13 11:40:23;;;;;;;23.15;20.70;;;;;;;;;;5078377;28;20031;-77
2022/10/13 11:42:51;;;;;;;17.58;15.93;;;;;;;;;;5079542;28;20067;-77
2022/10/13 11:45:35;;;;;;;43.35;36.20;;;;;;;;;;5079596;28;20024;-77
2022/10/13 11:48:30;;;;;;;32.70;29.30;;;;;;;;;;5078558;28;20059;-76
2022/10/13 11:51:10;;;;;;;17.10;15.48;;;;;;;;;;5015713;28;20136;-78
2022/10/13 11:53:59;;;;;;;18.23;16.08;;;;;;;;;;5014417;28;20583;-76
2022/10/13 11:56:42;;;;;;;15.57;13.98;;;;;;;;;;4989456;28;20059;-76
2022/10/13 11:59:24;;;;;;;15.57;13.98;;;;;;;;;;5012928;28;21154;-76
2022/10/13 12:01:54;;;;;;;14.93;13.38;;;;;;;;;;5016973;28;20080;-76
2022/10/13 12:04:20;;;;;;;16.80;14.93;;;;;;;;;;5015695;28;20079;-76
2022/10/13 12:06:47;;;;;;;13.60;12.20;;;;;;;;;;5016149;28;20041;-76
2022/10/13 12:09:15;;;;;;;15.93;13.05;;;;;;;;;;5016475;28;20051;-76
2022/10/13 12:11:41;;;;;;;13.75;12.30;;;;;;;;;;5015955;28;20049;-77
2022/10/13 12:14:15;;;;;;;17.30;12.57;;;;;;;;;;5017256;28;20525;-77
2022/10/13 12:16:50;;;;;;;16.73;12.77;;;;;;;;;;5015862;28;20037;-77
2022/10/13 12:19:18;;;;;;;12.38;11.07;;;;;;;;;;5013654;28;20039;-78
2022/10/13 12:21:48;;;;;;;13.13;11.48;;;;;;;;;;5017634;28;20361;-74
2022/10/13 12:24:13;;;;;;;11.98;10.77;;;;;;;;;;5014633;28;20380;-76
2022/10/13 12:26:38;;;;;;;14.77;10.88;;;;;;;;;;5028784;28;20039;-76
2022/10/13 12:29:09;;;;;;;31.23;23.15;;;;;;;;;;5078502;28;20083;-76
2022/10/13 12:31:45;;;;;;;28.92;23.13;;;;;;;;;;5079518;28;20402;-77
2022/10/13 12:34:20;;;;;;;24.30;19.05;;;;;;;;;;5079463;28;20486;-78
2022/10/13 12:36:51;;;;;;;17.58;13.93;;;;;;;;;;5078567;28;20390;-78
2022/10/13 12:39:16;;;;;;;14.95;11.85;;;;;;;;;;5079187;28;20034;-77
2022/10/13 12:41:43;;;;;;;21.40;18.25;;;;;;;;;;5078157;28;20343;-76
2022/10/13 12:44:28;;;;;;;12.73;9.82;;;;;;;;;;5077765;28;20064;-77
2022/10/13 12:46:55;;;;;;;17.55;12.32;;;;;;;;;;5077924;28;20078;-77
2022/10/13 12:49:23;;;;;;;16.45;14.70;;;;;;;;;;5078393;28;20032;-81
2022/10/13 12:52:15;;;;;;;15.70;11.30;;;;;;;;;;5077009;28;20028;-77
2022/10/13 12:54:48;;;;;;;20.05;14.07;;;;;;;;;;5071449;28;20124;-81
2022/10/13 12:57:21;;;;;;;23.85;20.77;;;;;;;;;;5078752;28;20012;-82
2022/10/13 12:59:47;;;;;;;22.90;19.65;;;;;;;;;;5078138;28;20032;-79
2022/10/13 13:02:20;;;;;;;22.92;19.90;;;;;;;;;;5079242;28;20028;-80
2022/10/13 13:04:46;;;;;;;31.80;28.67;;;;;;;;;;5079772;28;20107;-77
2022/10/13 13:07:29;;;;;;;33.03;29.58;;;;;;;;;;5077980;28;20135;-78
2022/10/13 13:10:14;;;;;;;13.82;12.18;;;;;;;;;;5078070;28;20024;-77
2022/10/13 13:12:40;;;;;;;16.00;13.30;;;;;;;;;;5079447;28;20020;-77
2022/10/13 13:15:23;;;;;;;17.48;15.73;;;;;;;;;;5078122;28;20020;-75
2022/10/13 13:17:49;;;;;;;18.27;14.20;;;;;;;;;;5077790;28;20352;-80
2022/10/13 13:20:33;;;;;;;14.52;12.98;;;;;;;;;;5076135;28;20039;-77
2022/10/13 13:22:59;;;;;;;14.80;13.30;;;;;;;;;;5078053;28;20043;-77
2022/10/13 13:25:25;;;;;;;11.90;10.70;;;;;;;;;;5076672;28;20055;-77
2022/10/13 13:27:50;;;;;;;13.20;11.30;;;;;;;;;;5078900;28;20070;-76
2022/10/13 13:30:17;;;;;;;13.18;11.75;;;;;;;;;;5075158;28;20028;-78
2022/10/13 13:32:43;;;;;;;47.67;42.58;;;;;;;;;;5072622;28;20490;-79
2022/10/13 13:35:08;;;;;;;15.63;14.02;;;;;;;;;;5078423;28;20123;-77
2022/10/13 13:37:35;;;;;;;18.92;15.05;;;;;;;;;;5076816;28;20032;-77
2022/10/13 13:40:00;;;;;;;13.25;10.23;;;;;;;;;;5081192;28;20328;-76
2022/10/13 13:42:27;;;;;;;28.35;25.42;;;;;;;;;;5082305;28;20035;-76
2022/10/13 13:44:52;;;;;;;24.05;21.60;;;;;;;;;;5080744;28;20036;-78
2022/10/13 13:47:19;;;;;;;21.40;19.23;;;;;;;;;;5081857;28;20055;-78
2022/10/13 13:49:45;;;;;;;12.52;11.30;;;;;;;;;;5080099;28;20038;-76
2022/10/13 13:52:10;;;;;;;13.18;10.75;;;;;;;;;;5082621;28;20134;-76
2022/10/13 13:54:35;;;;;;;10.95;9.85;;;;;;;;;;5081203;28;20036;-76
2022/10/13 13:57:01;;;;;;;14.02;11.45;;;;;;;;;;5081409;28;20062;-77
2022/10/13 13:59:26;;;;;;;13.98;11.38;;;;;;;;;;5082236;28;20039;-78
2022/10/13 14:01:51;;;;;;;12.52;11.32;;;;;;;;;;5071679;28;20032;-79
2022/10/13 14:04:17;;;;;;;20.05;14.43;;;;;;;;;;5079846;28;20028;-78
2022/10/13 14:06:42;;;;;;;12.35;11.05;;;;;;;;;;5082332;28;20134;-82
2022/10/13 14:09:07;;;;;;;13.32;11.23;;;;;;;;;;5082488;28;20028;-76
2022/10/13 14:11:33;;;;;;;13.77;11.88;;;;;;;;;;5079033;28;20033;-77
2022/10/13 14:14:00;;;;;;;14.43;10.68;;;;;;;;;;5070327;28;20111;-78
2022/10/13 14:16:26;;;;;;;14.55;12.88;;;;;;;;;;5071875;28;20020;-76
2022/10/13 14:18:51;;;;;;;27.98;23.85;;;;;;;;;;5069720;28;20435;-76
2022/10/13 14:21:17;;;;;;;17.40;14.50;;;;;;;;;;5070399;28;20032;-77
2022/10/13 14:23:45;;;;;;;17.52;13.02;;;;;;;;;;5073584;28;20340;-82